Time;durP1;ratioP1;P1;durP2;ratioP2;P2;SDS_P1;SDS_P2;PMS_P1;PMS_P2;Temp;Humidity;BMP_temperature;BMP_pressure;BME280_temperature;BME280_humidity;BME280_pressure;Samples;Min_cycle;Max_cycle;Signal;HPM_P1;HPM_P2
2023/05/29 00:01:10;;;;;;;11.47;2.43;;;;;;;-145.18;100.00;46615.47;5048250;28;20104;-59
2023/05/29 00:03:36;;;;;;;13.33;2.53;;;;;;;-145.18;100.00;46627.19;5034002;28;20486;-59
2023/05/29 00:06:02;;;;;;;12.70;2.73;;;;;;;-145.18;100.00;46631.09;5036707;28;20465;-58
2023/05/29 00:08:28;;;;;;;9.17;1.70;;;;;;;-145.18;100.00;46635.00;5041202;28;20056;-59
2023/05/29 00:10:53;;;;;;;12.97;1.93;;;;;;;-145.18;100.00;46635.00;5051272;28;20127;-59
2023/05/29 00:13:19;;;;;;;8.67;2.03;;;;;;;-145.18;100.00;46640.88;5047061;28;20037;-58
2023/05/29 00:15:44;;;;;;;13.60;2.27;;;;;;;-145.18;100.00;46677.97;5052816;28;20037;-59
2023/05/29 00:18:10;;;;;;;13.77;2.10;;;;;;;-145.18;100.00;46654.53;5071703;28;20032;-59
2023/05/29 00:20:35;;;;;;;11.77;3.20;;;;;;;-145.18;100.00;46658.44;5057284;28;20075;-58
2023/05/29 00:23:02;;;;;;;11.33;2.37;;;;;;;-145.18;100.00;46666.25;5061977;28;20025;-59
2023/05/29 00:25:27;;;;;;;13.43;3.00;;;;;;;-145.18;100.00;46670.16;5050886;28;20162;-59
2023/05/29 00:27:53;;;;;;;11.80;1.80;;;;;;;-145.18;100.00;46668.22;5061075;28;20352;-59
2023/05/29 00:30:18;;;;;;;11.17;2.40;;;;;;;-145.18;100.00;46677.97;5054771;28;20436;-59
2023/05/29 00:32:43;;;;;;;8.53;2.30;;;;;;;-145.18;100.00;46679.94;5050981;28;20052;-59
2023/05/29 00:35:10;;;;;;;18.80;2.43;;;;;;;-145.18;100.00;46679.94;5051293;28;20123;-59
2023/05/29 00:37:35;;;;;;;17.33;2.53;;;;;;;-145.18;100.00;46685.78;5060485;28;20163;-59
2023/05/29 00:40:01;;;;;;;9.03;2.27;;;;;;;-145.18;100.00;46689.69;5044775;28;20361;-59
2023/05/29 00:42:26;;;;;;;9.40;1.83;;;;;;;-145.18;100.00;46687.75;5050422;28;20044;-59
2023/05/29 00:44:51;;;;;;;12.57;2.60;;;;;;;-145.18;100.00;46687.75;5054960;28;20119;-58
2023/05/29 00:47:17;;;;;;;9.43;2.60;;;;;;;-145.18;100.00;46689.69;5060391;28;20081;-59
2023/05/29 00:49:42;;;;;;;14.17;2.70;;;;;;;-145.18;100.00;46679.94;5053319;28;20040;-58
2023/05/29 00:52:10;;;;;;;15.73;3.53;;;;;;;-145.18;100.00;46677.97;5058902;28;20085;-58
2023/05/29 00:54:36;;;;;;;12.63;2.43;;;;;;;-145.18;100.00;46683.84;5058872;28;20086;-58
2023/05/29 00:57:03;;;;;;;12.13;2.77;;;;;;;-145.18;100.00;46676.03;5072555;28;20339;-58
2023/05/29 00:59:33;;;;;;;12.83;2.00;;;;;;;-145.18;100.00;46676.03;5056707;28;20096;-58
2023/05/29 01:02:00;;;;;;;14.27;2.90;;;;;;;-145.18;100.00;46677.97;5042215;28;20258;-59
2023/05/29 01:04:27;;;;;;;15.93;2.53;;;;;;;-145.18;100.00;46685.78;5053136;28;20301;-59
2023/05/29 01:06:52;;;;;;;10.73;2.20;;;;;;;-145.18;100.00;46681.88;5052517;28;20271;-59
2023/05/29 01:09:18;;;;;;;14.00;2.63;;;;;;;-145.18;100.00;46677.97;5054740;28;20273;-58
2023/05/29 01:11:52;;;;;;;9.63;2.63;;;;;;;-145.18;100.00;46676.03;5032370;28;20038;-59
2023/05/29 01:14:33;;;;;;;13.73;3.07;;;;;;;-145.18;100.00;46676.03;5064145;28;20033;-58
2023/05/29 01:17:11;;;;;;;16.07;2.40;;;;;;;-145.18;100.00;46677.97;5067848;28;20337;-59
2023/05/29 01:20:01;;;;;;;10.17;2.20;;;;;;;-145.18;100.00;46681.88;5054404;28;20609;-58
2023/05/29 01:22:48;;;;;;;12.87;2.73;;;;;;;-145.18;100.00;46674.06;5045548;28;20276;-59
2023/05/29 01:25:42;;;;;;;15.27;2.20;;;;;;;-145.18;100.00;46679.94;5059916;28;20254;-58
2023/05/29 01:28:11;;;;;;;15.77;2.67;;;;;;;-145.18;100.00;46670.16;5034618;28;20616;-59
2023/05/29 01:30:37;;;;;;;22.53;2.57;;;;;;;-145.18;100.00;46668.22;5051224;28;20781;-58
2023/05/29 01:33:03;;;;;;;13.30;2.93;;;;;;;-145.18;100.00;46674.06;5054421;28;20343;-58
2023/05/29 01:35:29;;;;;;;12.13;2.33;;;;;;;-145.18;100.00;46674.06;5044636;28;20759;-58
2023/05/29 01:37:55;;;;;;;14.07;2.07;;;;;;;-145.18;100.00;46670.16;5064712;28;20474;-59
2023/05/29 01:40:20;;;;;;;11.70;2.00;;;;;;;-145.18;100.00;46672.13;5034186;28;20255;-58
2023/05/29 01:42:46;;;;;;;12.90;2.97;;;;;;;-145.18;100.00;46666.25;5044474;28;20116;-58
2023/05/29 01:45:12;;;;;;;13.73;2.83;;;;;;;-145.18;100.00;46670.16;5055617;28;20020;-58
2023/05/29 01:47:38;;;;;;;13.97;2.17;;;;;;;-145.18;100.00;46664.31;5058278;28;20029;-58
2023/05/29 01:50:04;;;;;;;18.03;2.63;;;;;;;-145.18;100.00;46668.22;5054145;28;20025;-59
2023/05/29 01:52:31;;;;;;;15.63;3.90;;;;;;;-145.18;100.00;46668.22;5064357;28;20285;-59
2023/05/29 01:54:56;;;;;;;14.27;2.90;;;;;;;-145.18;100.00;46668.22;5045671;28;20261;-59
2023/05/29 01:57:22;;;;;;;14.03;2.10;;;;;;;-145.18;100.00;46666.25;5061948;28;20261;-59
2023/05/29 01:59:48;;;;;;;17.17;2.50;;;;;;;-145.18;100.00;46666.25;5052663;28;20445;-59
2023/05/29 02:02:13;;;;;;;14.17;2.77;;;;;;;-145.18;100.00;46662.34;5044239;28;20037;-58
2023/05/29 02:04:39;;;;;;;7.70;2.57;;;;;;;-145.18;100.00;46668.22;5048500;28;20265;-58
2023/05/29 02:07:05;;;;;;;16.40;2.13;;;;;;;-145.18;100.00;46668.22;5062570;28;20047;-59
2023/05/29 02:09:31;;;;;;;17.23;2.20;;;;;;;-145.18;100.00;46666.25;5043036;28;20029;-59
2023/05/29 02:11:56;;;;;;;20.17;2.67;;;;;;;-145.18;100.00;46662.34;5035829;28;20335;-58
2023/05/29 02:14:24;;;;;;;11.00;2.13;;;;;;;-145.18;100.00;46666.25;5036641;28;20481;-59
2023/05/29 02:16:51;;;;;;;13.63;3.47;;;;;;;-145.18;100.00;46660.41;5053614;28;20091;-58
2023/05/29 02:19:18;;;;;;;16.37;2.07;;;;;;;-145.18;100.00;46662.34;5049631;28;20270;-59
2023/05/29 02:21:44;;;;;;;14.90;2.43;;;;;;;-145.18;100.00;46660.41;5053991;28;20266;-59
2023/05/29 02:24:09;;;;;;;16.97;2.00;;;;;;;-145.18;100.00;46660.41;5066474;28;20695;-59
2023/05/29 02:26:36;;;;;;;13.63;2.87;;;;;;;-145.18;100.00;46662.34;5053075;28;20033;-59
2023/05/29 02:29:02;;;;;;;12.43;2.17;;;;;;;-145.18;100.00;46660.41;5038537;28;20111;-59
2023/05/29 02:31:28;;;;;;;15.13;2.00;;;;;;;-145.18;100.00;46662.34;5062028;28;20377;-59
2023/05/29 02:33:53;;;;;;;12.33;2.20;;;;;;;-145.18;100.00;46666.25;5065796;28;20394;-57
2023/05/29 02:36:18;;;;;;;11.33;2.50;;;;;;;-145.18;100.00;46664.31;5042663;28;20409;-59
2023/05/29 02:38:44;;;;;;;10.47;2.77;;;;;;;-145.18;100.00;46662.34;5033724;28;20060;-59
2023/05/29 02:41:09;;;;;;;13.57;2.37;;;;;;;-145.18;100.00;46662.34;5043099;28;20108;-59
2023/05/29 02:43:35;;;;;;;19.70;2.53;;;;;;;-145.18;100.00;46660.41;5052649;28;20405;-59
2023/05/29 02:46:00;;;;;;;16.37;2.43;;;;;;;-145.18;100.00;46664.31;5052840;28;20036;-59
2023/05/29 02:48:26;;;;;;;15.27;2.57;;;;;;;-145.18;100.00;46666.25;5052526;28;20526;-59
2023/05/29 02:50:51;;;;;;;9.23;1.60;;;;;;;-145.18;100.00;46662.34;5043023;28;20034;-58
2023/05/29 02:53:17;;;;;;;12.40;2.50;;;;;;;-145.18;100.00;46670.16;5052755;28;20020;-59
2023/05/29 02:55:42;;;;;;;6.03;1.83;;;;;;;-145.18;100.00;46664.31;5054176;28;20491;-59
2023/05/29 02:58:08;;;;;;;10.57;2.30;;;;;;;-145.18;100.00;46664.31;5050100;28;20029;-59
2023/05/29 03:00:33;;;;;;;9.20;2.63;;;;;;;-145.18;100.00;46660.41;5062001;28;20474;-59
2023/05/29 03:02:58;;;;;;;12.40;3.27;;;;;;;-145.18;100.00;46660.41;5065675;28;20078;-59
2023/05/29 03:05:25;;;;;;;15.47;2.00;;;;;;;-145.18;100.00;46664.31;5052425;28;20131;-59
2023/05/29 03:07:51;;;;;;;12.30;2.20;;;;;;;-145.18;100.00;46656.50;5051802;28;20486;-59
2023/05/29 03:10:17;;;;;;;9.10;1.80;;;;;;;-145.18;100.00;46664.31;5037651;28;20353;-59
2023/05/29 03:12:43;;;;;;;13.03;2.10;;;;;;;-145.18;100.00;46668.22;5048694;28;20029;-59
2023/05/29 03:15:09;;;;;;;16.10;3.10;;;;;;;-145.18;100.00;46670.16;5055314;28;20412;-58
2023/05/29 03:17:37;;;;;;;12.97;2.63;;;;;;;-145.18;100.00;46662.34;5030652;28;20800;-59
2023/05/29 03:20:05;;;;;;;16.63;2.77;;;;;;;-145.18;100.00;46666.25;5042544;28;20433;-58
2023/05/29 03:22:31;;;;;;;15.67;2.17;;;;;;;-145.18;100.00;46666.25;5027760;28;20339;-58
2023/05/29 03:24:56;;;;;;;14.73;2.07;;;;;;;-145.18;100.00;46664.31;5042653;28;20290;-59
2023/05/29 03:27:22;;;;;;;14.23;2.37;;;;;;;-145.18;100.00;46664.31;5052476;28;20021;-59
2023/05/29 03:29:47;;;;;;;12.47;1.60;;;;;;;-145.18;100.00;46662.34;5041723;28;20676;-58
2023/05/29 03:32:12;;;;;;;23.40;2.47;;;;;;;-145.18;100.00;46662.34;5062306;28;20053;-59
2023/05/29 03:34:39;;;;;;;15.33;2.37;;;;;;;-145.18;100.00;46662.34;5050556;28;20491;-58
2023/05/29 03:37:05;;;;;;;11.93;1.43;;;;;;;-145.18;100.00;46668.22;5055803;28;20036;-58
2023/05/29 03:39:30;;;;;;;20.50;2.37;;;;;;;-145.18;100.00;46666.25;5061084;28;20270;-58
2023/05/29 03:41:56;;;;;;;13.03;2.13;;;;;;;-145.18;100.00;46672.13;5051625;28;20036;-58
2023/05/29 03:44:21;;;;;;;14.93;2.17;;;;;;;-145.18;100.00;46666.25;5037868;28;20504;-58
2023/05/29 03:46:46;;;;;;;12.63;1.47;;;;;;;-145.18;100.00;46664.31;5066891;28;20051;-59
2023/05/29 03:49:12;;;;;;;13.13;1.90;;;;;;;-145.18;100.00;46666.25;5060497;28;20505;-59
2023/05/29 03:51:38;;;;;;;8.73;2.13;;;;;;;-145.18;100.00;46666.25;5055328;28;20135;-58
2023/05/29 03:54:03;;;;;;;14.20;2.13;;;;;;;-145.18;100.00;46664.31;5070035;28;20478;-58
2023/05/29 03:56:30;;;;;;;11.77;2.20;;;;;;;-145.18;100.00;46662.34;5071230;28;20025;-59
2023/05/29 03:58:55;;;;;;;15.23;2.30;;;;;;;-145.18;100.00;46662.34;5069156;28;20040;-59
2023/05/29 04:01:21;;;;;;;15.67;2.30;;;;;;;-145.18;100.00;46664.31;5050380;28;20288;-59
2023/05/29 04:03:46;;;;;;;21.67;2.40;;;;;;;-145.18;100.00;46664.31;5051424;28;20053;-59
2023/05/29 04:06:12;;;;;;;13.67;2.00;;;;;;;-145.18;100.00;46666.25;5041329;28;20037;-59
2023/05/29 04:08:38;;;;;;;25.17;4.37;;;;;;;-145.18;100.00;46654.53;5042275;28;20076;-58
2023/05/29 04:11:03;;;;;;;12.10;1.60;;;;;;;-145.18;100.00;46656.50;5047806;28;20257;-59
2023/05/29 04:13:29;;;;;;;19.13;2.10;;;;;;;-145.18;100.00;46658.44;5050929;28;20041;-58
2023/05/29 04:15:54;;;;;;;13.30;1.90;;;;;;;-145.18;100.00;46662.34;5066908;28;20430;-58
2023/05/29 04:18:21;;;;;;;9.03;1.90;;;;;;;-145.18;100.00;46666.25;5062239;28;20036;-59
2023/05/29 04:20:47;;;;;;;11.80;1.60;;;;;;;-145.18;100.00;46664.31;5040095;28;20040;-59
2023/05/29 04:23:13;;;;;;;12.27;2.13;;;;;;;-145.18;100.00;46668.22;5041196;28;20674;-59
2023/05/29 04:25:38;;;;;;;9.53;1.60;;;;;;;-145.18;100.00;46668.22;5053041;28;20060;-59
2023/05/29 04:28:04;;;;;;;12.70;2.07;;;;;;;-145.18;100.00;46668.22;5023138;28;20392;-59
2023/05/29 04:30:30;;;;;;;13.07;2.33;;;;;;;-145.18;100.00;46672.13;5053087;28;20482;-59
2023/05/29 04:32:55;;;;;;;8.63;1.73;;;;;;;-145.18;100.00;46674.06;5054562;28;20057;-59
2023/05/29 04:35:21;;;;;;;11.33;2.33;;;;;;;-145.18;100.00;46670.16;5036541;28;20360;-58
2023/05/29 04:37:47;;;;;;;12.13;2.23;;;;;;;-145.18;100.00;46676.03;5030407;28;20116;-59
2023/05/29 04:40:13;;;;;;;7.70;2.10;;;;;;;-145.18;100.00;46679.94;5052836;28;20036;-58
2023/05/29 04:42:41;;;;;;;18.20;2.53;;;;;;;-145.18;100.00;46679.94;5048402;28;20029;-58
2023/05/29 04:45:10;;;;;;;12.43;2.23;;;;;;;-145.18;100.00;46677.97;5054810;28;20262;-58
2023/05/29 04:47:36;;;;;;;4.50;1.33;;;;;;;-145.18;100.00;46679.94;5045594;28;20676;-59
2023/05/29 04:50:02;;;;;;;11.17;1.40;;;;;;;-145.18;100.00;46677.97;5051723;28;20264;-60
2023/05/29 04:52:28;;;;;;;11.03;1.80;;;;;;;-145.18;100.00;46676.03;5019807;28;20286;-58
2023/05/29 04:54:54;;;;;;;5.40;1.47;;;;;;;-145.18;100.00;46677.97;5031359;28;20465;-59
2023/05/29 04:57:20;;;;;;;13.73;2.53;;;;;;;-145.18;100.00;46674.06;5058723;28;20043;-57
2023/05/29 04:59:45;;;;;;;17.07;3.00;;;;;;;-145.18;100.00;46670.16;5036214;28;20330;-58
2023/05/29 05:02:10;;;;;;;10.40;2.13;;;;;;;-145.18;100.00;46672.13;5044272;28;20114;-58
2023/05/29 05:04:36;;;;;;;13.03;2.57;;;;;;;-145.18;100.00;46670.16;5038671;28;20045;-58
2023/05/29 05:07:03;;;;;;;13.80;1.83;;;;;;;-145.18;100.00;46674.06;5017864;28;20033;-58
2023/05/29 05:09:28;;;;;;;12.50;2.00;;;;;;;-145.18;100.00;46662.34;5041929;28;20040;-59
2023/05/29 05:11:54;;;;;;;18.77;2.30;;;;;;;-145.18;100.00;46658.44;5043588;28;20297;-58
2023/05/29 05:14:20;;;;;;;13.87;2.27;;;;;;;-145.18;100.00;46654.53;5049976;28;20052;-57
2023/05/29 05:16:46;;;;;;;13.07;2.20;;;;;;;-145.18;100.00;46652.59;5071159;28;20024;-57
2023/05/29 05:19:11;;;;;;;15.83;2.50;;;;;;;-145.18;100.00;46650.63;5024276;28;20033;-58
2023/05/29 05:21:36;;;;;;;18.20;2.10;;;;;;;-145.18;100.00;46636.94;5036629;28;20497;-58
2023/05/29 05:24:02;;;;;;;11.10;1.93;;;;;;;-145.18;100.00;46633.06;5035314;28;20025;-58
2023/05/29 05:26:27;;;;;;;15.17;2.53;;;;;;;-145.18;100.00;46625.22;5016865;28;20033;-58
2023/05/29 05:28:53;;;;;;;20.20;1.83;;;;;;;-145.18;100.00;46607.66;5034428;28;20398;-58
2023/05/29 05:31:18;;;;;;;15.50;1.70;;;;;;;-145.18;100.00;46582.25;5036201;28;20127;-58
2023/05/29 05:33:44;;;;;;;14.40;2.13;;;;;;;-145.18;100.00;46566.63;5003141;28;20084;-58
2023/05/29 05:36:10;;;;;;;19.40;2.27;;;;;;;-145.18;100.00;46558.81;5040890;28;20036;-58
2023/05/29 05:38:35;;;;;;;15.03;2.13;;;;;;;-145.18;100.00;46552.97;5035867;28;20033;-58
2023/05/29 05:41:01;;;;;;;21.07;2.03;;;;;;;-145.18;100.00;46539.28;5035013;28;20278;-58
2023/05/29 05:43:27;;;;;;;14.47;2.37;;;;;;;-145.18;100.00;46533.44;5045964;28;20151;-58
2023/05/29 05:45:52;;;;;;;20.97;3.17;;;;;;;-145.18;100.00;46531.47;5045420;28;20036;-58
2023/05/29 05:48:18;;;;;;;15.00;2.23;;;;;;;-145.18;100.00;46531.47;5021379;28;20017;-57
2023/05/29 05:50:43;;;;;;;11.63;2.83;;;;;;;-145.18;100.00;46533.44;5042511;28;20040;-58
2023/05/29 05:53:08;;;;;;;14.10;1.87;;;;;;;-145.18;100.00;46533.44;5037820;28;20282;-58
2023/05/29 05:55:34;;;;;;;14.20;2.43;;;;;;;-145.18;100.00;46531.47;5025968;28;20035;-58
2023/05/29 05:57:59;;;;;;;17.03;2.00;;;;;;;-145.18;100.00;46535.38;5041390;28;20047;-58
2023/05/29 06:00:25;;;;;;;17.93;4.07;;;;;;;-145.18;100.00;46535.38;5028154;28;20116;-59
2023/05/29 06:02:51;;;;;;;13.10;2.87;;;;;;;-145.18;100.00;46539.28;5037347;28;20039;-58
2023/05/29 06:05:16;;;;;;;10.97;2.43;;;;;;;-145.18;100.00;46535.38;5037007;28;20290;-58
2023/05/29 06:07:42;;;;;;;13.50;2.50;;;;;;;-145.18;100.00;46549.06;5035256;28;20041;-58
2023/05/29 06:10:07;;;;;;;11.30;1.73;;;;;;;-145.18;100.00;46552.97;5037047;28;20049;-59
2023/05/29 06:12:34;;;;;;;20.53;2.50;;;;;;;-145.18;100.00;46552.97;5040257;28;20578;-58
2023/05/29 06:14:59;;;;;;;17.20;2.13;;;;;;;-145.18;100.00;46549.06;5049248;28;20075;-58
2023/05/29 06:17:25;;;;;;;13.23;1.90;;;;;;;-145.18;100.00;46551.00;5035758;28;20290;-58
2023/05/29 06:19:50;;;;;;;12.53;2.40;;;;;;;-145.18;100.00;46558.81;5050176;28;20036;-58
2023/05/29 06:22:15;;;;;;;7.90;2.00;;;;;;;-145.18;100.00;46554.91;5052317;28;20030;-58
2023/05/29 06:24:41;;;;;;;9.70;1.87;;;;;;;-145.18;100.00;46560.78;5028347;28;20021;-58
2023/05/29 06:27:07;;;;;;;17.73;2.70;;;;;;;-145.18;100.00;46566.63;5036054;28;20486;-59
2023/05/29 06:29:33;;;;;;;11.40;2.40;;;;;;;-145.18;100.00;46568.59;5049847;28;20021;-58
2023/05/29 06:31:58;;;;;;;11.43;2.30;;;;;;;-145.18;100.00;46568.59;5066011;28;20033;-58
2023/05/29 06:34:24;;;;;;;14.90;2.10;;;;;;;-145.18;100.00;46584.22;5050888;28;20273;-58
2023/05/29 06:36:49;;;;;;;11.77;1.67;;;;;;;-145.18;100.00;46576.41;5047764;28;20036;-58
2023/05/29 06:39:15;;;;;;;10.50;2.17;;;;;;;-145.18;100.00;46570.53;5049999;28;20032;-59
2023/05/29 06:41:40;;;;;;;8.20;2.03;;;;;;;-145.18;100.00;46578.34;5064798;28;20052;-59
2023/05/29 06:44:06;;;;;;;13.43;1.80;;;;;;;-145.18;100.00;46586.16;5050695;28;20064;-58
2023/05/29 06:46:31;;;;;;;11.47;2.03;;;;;;;-145.18;100.00;46599.84;5063413;28;20033;-58
2023/05/29 06:48:57;;;;;;;10.80;1.70;;;;;;;-145.18;100.00;46593.97;5058169;28;20043;-59
2023/05/29 06:51:22;;;;;;;15.10;1.97;;;;;;;-145.18;100.00;46607.66;5041319;28;20029;-58
2023/05/29 06:53:47;;;;;;;22.93;2.27;;;;;;;-145.18;100.00;46642.81;5047175;28;20163;-58
2023/05/29 06:56:13;;;;;;;13.60;2.33;;;;;;;-145.18;100.00;46631.09;5042543;28;20438;-58
2023/05/29 06:58:39;;;;;;;10.20;2.10;;;;;;;-145.18;100.00;46646.72;5038691;28;20029;-58
2023/05/29 07:01:05;;;;;;;14.30;2.00;;;;;;;-145.18;100.00;46654.53;5039931;28;20037;-58
2023/05/29 07:03:30;;;;;;;12.80;1.70;;;;;;;-145.18;100.00;46660.41;5040836;28;20447;-59
2023/05/29 07:05:56;;;;;;;17.10;1.73;;;;;;;-145.18;100.00;46674.06;5037420;28;20045;-58
2023/05/29 07:08:23;;;;;;;7.87;1.83;;;;;;;-145.18;100.00;46635.00;5038311;28;20028;-59
2023/05/29 07:10:48;;;;;;;9.20;2.17;;;;;;;-145.18;100.00;46638.91;5035938;28;20056;-58
2023/05/29 07:13:17;;;;;;;9.43;1.83;;;;;;;-145.18;100.00;46676.03;5044291;28;20423;-59
2023/05/29 07:15:44;;;;;;;10.73;1.67;;;;;;;-145.18;100.00;46697.50;5028635;28;20029;-58
2023/05/29 07:18:09;;;;;;;8.90;1.77;;;;;;;-145.18;100.00;46662.34;5041710;28;20040;-58
2023/05/29 07:20:36;;;;;;;13.90;2.00;;;;;;;-145.18;100.00;46693.59;5035957;28;20021;-59
2023/05/29 07:23:02;;;;;;;5.77;1.63;;;;;;;-145.18;100.00;46705.31;5039007;28;20091;-58
2023/05/29 07:25:27;;;;;;;11.30;2.00;;;;;;;-145.18;100.00;46719.00;5036700;28;20491;-59
2023/05/29 07:27:53;;;;;;;6.63;1.27;;;;;;;-145.18;100.00;46742.44;5033761;28;20683;-58
2023/05/29 07:30:18;;;;;;;10.03;2.23;;;;;;;-145.18;100.00;46765.88;5041473;28;20501;-59
2023/05/29 07:32:45;;;;;;;8.80;1.60;;;;;;;-145.18;100.00;46793.22;5037744;28;20153;-58
2023/05/29 07:35:10;;;;;;;7.63;1.63;;;;;;;-145.18;100.00;46865.50;5035629;28;20044;-59
2023/05/29 07:37:36;;;;;;;9.73;1.47;;;;;;;-145.18;100.00;46855.72;5013076;28;20111;-59
2023/05/29 07:40:04;;;;;;;12.23;3.33;;;;;;;-145.18;100.00;46957.31;5037639;28;20033;-58
2023/05/29 07:42:31;;;;;;;11.27;1.60;;;;;;;-145.18;100.00;46914.34;5037872;28;20048;-58
2023/05/29 07:44:56;;;;;;;7.90;1.70;;;;;;;-145.18;100.00;47180.03;5052799;28;20024;-59
2023/05/29 07:47:22;;;;;;;15.00;1.73;;;;;;;-145.18;100.00;47324.59;5066287;28;20075;-58
2023/05/29 07:49:47;;;;;;;9.50;1.70;;;;;;;-145.18;100.00;47305.06;5054423;28;20032;-59
2023/05/29 07:52:12;;;;;;;13.53;1.20;;;;;;;-145.18;100.00;47256.22;5037011;28;20033;-59
2023/05/29 07:54:38;;;;;;;8.47;1.67;;;;;;;-145.18;100.00;47180.03;5044559;28;20455;-59
2023/05/29 07:57:09;;;;;;;6.53;1.80;;;;;;;-145.18;100.00;47277.69;5057508;28;20025;-59
2023/05/29 07:59:35;;;;;;;5.70;1.20;;;;;;;-145.18;100.00;47248.41;5052701;28;20060;-58
2023/05/29 08:02:02;;;;;;;6.13;1.67;;;;;;;-145.18;100.00;47367.56;5033689;28;20025;-59
2023/05/29 08:04:28;;;;;;;12.57;1.87;;;;;;;-145.18;100.00;47318.72;5049770;28;20033;-59
2023/05/29 08:06:54;;;;;;;12.23;2.30;;;;;;;-145.18;100.00;47353.88;5055547;28;20029;-59
2023/05/29 08:09:20;;;;;;;10.00;2.50;;;;;;;-145.18;100.00;47367.56;5057090;28;20033;-58
2023/05/29 08:11:46;;;;;;;10.33;1.97;;;;;;;-145.18;100.00;47320.69;5051462;28;20030;-59
2023/05/29 08:14:12;;;;;;;12.40;1.83;;;;;;;-145.18;100.00;47334.34;5031009;28;20043;-58
2023/05/29 08:16:37;;;;;;;6.27;1.57;;;;;;;-145.18;100.00;47287.47;5050797;28;20051;-58
2023/05/29 08:19:03;;;;;;;8.70;1.40;;;;;;;-145.18;100.00;47303.09;5050185;28;20061;-59
2023/05/29 08:21:31;;;;;;;11.00;1.50;;;;;;;-145.18;100.00;47287.47;5053173;28;20052;-58
2023/05/29 08:23:57;;;;;;;7.47;1.50;;;;;;;-145.18;100.00;47305.06;5049587;28;20045;-58
2023/05/29 08:26:22;;;;;;;15.33;1.70;;;;;;;-145.18;100.00;47293.31;5048362;28;20025;-59
2023/05/29 08:28:48;;;;;;;11.13;1.73;;;;;;;-145.18;100.00;47312.88;5049551;28;20486;-59
2023/05/29 08:31:13;;;;;;;11.17;1.37;;;;;;;-145.18;100.00;47287.47;5044976;28;20049;-59
2023/05/29 08:33:39;;;;;;;8.30;1.90;;;;;;;-145.18;100.00;47271.84;5027941;28;20128;-59
2023/05/29 08:36:05;;;;;;;12.23;1.60;;;;;;;-145.18;100.00;47260.13;5046258;28;20082;-59
2023/05/29 08:38:31;;;;;;;8.07;1.93;;;;;;;-145.18;100.00;47252.31;5050857;28;20037;-59
2023/05/29 08:41:00;;;;;;;6.73;1.70;;;;;;;-145.18;100.00;47260.13;5038977;28;20025;-58
2023/05/29 08:43:30;;;;;;;10.47;1.83;;;;;;;-145.18;100.00;47250.34;5044978;28;20032;-59
2023/05/29 08:46:00;;;;;;;10.43;1.70;;;;;;;-145.18;100.00;47260.13;5046930;28;20042;-59
2023/05/29 08:48:27;;;;;;;10.30;2.07;;;;;;;-145.18;100.00;47246.44;5045583;28;20110;-58
2023/05/29 08:50:55;;;;;;;8.63;2.30;;;;;;;-145.18;100.00;47248.41;5048528;28;20421;-58
2023/05/29 08:53:24;;;;;;;9.87;1.73;;;;;;;-145.18;100.00;47258.16;5044370;28;20512;-59
2023/05/29 08:55:52;;;;;;;11.40;1.50;;;;;;;-145.18;100.00;47228.84;5048998;28;20052;-59
2023/05/29 08:58:20;;;;;;;4.90;1.70;;;;;;;-145.18;100.00;47236.66;5052239;28;20499;-58
2023/05/29 09:00:47;;;;;;;7.97;2.00;;;;;;;-145.18;100.00;47226.91;5045391;28;20034;-59
2023/05/29 09:03:13;;;;;;;6.80;1.90;;;;;;;-145.18;100.00;47221.03;5044971;28;20394;-59
2023/05/29 09:05:41;;;;;;;11.97;2.73;;;;;;;-145.18;100.00;47211.28;5046906;28;20025;-58
2023/05/29 09:08:14;;;;;;;8.50;1.57;;;;;;;-145.18;100.00;47207.38;5028903;28;20037;-59
2023/05/29 09:10:45;;;;;;;7.23;1.77;;;;;;;-145.18;100.00;47228.84;5046179;28;20041;-59
2023/05/29 09:13:12;;;;;;;6.53;1.70;;;;;;;-145.18;100.00;47219.09;5042664;28;20033;-59
2023/05/29 09:15:42;;;;;;;6.57;1.70;;;;;;;-145.18;100.00;47238.63;5044271;28;20052;-59
2023/05/29 09:18:08;;;;;;;7.87;1.70;;;;;;;-145.18;100.00;47211.28;5045060;28;20029;-59
2023/05/29 09:20:34;;;;;;;10.40;2.07;;;;;;;-145.18;100.00;47215.19;5008590;28;20198;-58
2023/05/29 09:23:02;;;;;;;7.40;1.93;;;;;;;-145.18;100.00;47195.66;5042229;28;20040;-58
2023/05/29 09:25:30;;;;;;;11.77;1.63;;;;;;;-145.18;100.00;47201.50;5044274;28;20461;-58
2023/05/29 09:28:02;;;;;;;9.03;2.07;;;;;;;-145.18;100.00;47199.56;5050363;28;20029;-58
2023/05/29 09:30:41;;;;;;;9.93;1.83;;;;;;;-145.18;100.00;47197.59;5046325;28;20079;-59
2023/05/29 09:33:11;;;;;;;11.33;2.23;;;;;;;-145.18;100.00;47205.41;5048348;28;20049;-58
2023/05/29 09:35:40;;;;;;;12.33;1.90;;;;;;;-145.18;100.00;47203.47;5042719;28;20444;-58
2023/05/29 09:38:07;;;;;;;5.87;1.60;;;;;;;-145.18;100.00;47201.50;5040158;28;20044;-60
2023/05/29 09:40:34;;;;;;;8.03;1.80;;;;;;;-145.18;100.00;47187.84;5045347;28;20099;-59
2023/05/29 09:43:04;;;;;;;5.53;1.63;;;;;;;-145.18;100.00;47197.59;5047736;28;20029;-58
2023/05/29 09:45:30;;;;;;;6.40;1.80;;;;;;;-145.18;100.00;47187.84;5045214;28;20438;-59
2023/05/29 09:47:56;;;;;;;3.80;1.33;;;;;;;-145.18;100.00;47207.38;5045509;28;20041;-59
2023/05/29 09:50:25;;;;;;;7.27;1.90;;;;;;;-145.18;100.00;47191.75;5047787;28;20044;-59
2023/05/29 09:52:53;;;;;;;6.60;1.67;;;;;;;-145.18;100.00;47180.03;5043734;28;20033;-59
2023/05/29 09:55:23;;;;;;;4.23;1.20;;;;;;;-145.18;100.00;47189.78;5029149;28;20033;-59
2023/05/29 09:57:49;;;;;;;7.57;1.47;;;;;;;-145.18;100.00;47176.09;5041059;28;20029;-59
2023/05/29 10:00:17;;;;;;;12.73;1.93;;;;;;;-145.18;100.00;47168.28;5044180;28;20083;-60
2023/05/29 10:02:42;;;;;;;12.63;1.80;;;;;;;-145.18;100.00;47183.94;5041024;28;20028;-59
2023/05/29 10:05:09;;;;;;;7.10;1.90;;;;;;;-145.18;100.00;47168.28;5043824;28;20044;-59
2023/05/29 10:07:36;;;;;;;7.30;2.40;;;;;;;-145.18;100.00;47168.28;5028841;28;20402;-59
2023/05/29 10:10:05;;;;;;;7.53;1.97;;;;;;;-145.18;100.00;47168.28;5041849;28;20036;-59
2023/05/29 10:12:34;;;;;;;6.13;1.70;;;;;;;-145.18;100.00;47178.06;5047797;28;20051;-59
2023/05/29 10:15:02;;;;;;;7.87;1.60;;;;;;;-145.18;100.00;47166.34;5041292;28;20128;-59
2023/05/29 10:17:36;;;;;;;7.80;1.77;;;;;;;-145.18;100.00;47146.81;5045220;28;20032;-59
2023/05/29 10:20:06;;;;;;;9.10;2.63;;;;;;;-145.18;100.00;47172.19;5036540;28;20037;-59
2023/05/29 10:22:33;;;;;;;8.47;1.80;;;;;;;-145.18;100.00;47146.81;5049647;28;20111;-59
2023/05/29 10:25:00;;;;;;;6.23;1.80;;;;;;;-145.18;100.00;47168.28;5041370;28;20735;-59
2023/05/29 10:27:26;;;;;;;10.30;2.40;;;;;;;-145.18;100.00;47139.00;5037695;28;20040;-59
2023/05/29 10:30:15;;;;;;;7.93;2.13;;;;;;;-145.18;100.00;47154.63;5040010;28;20044;-59
2023/05/29 10:33:06;;;;;;;5.20;1.73;;;;;;;-145.18;100.00;47133.13;5039590;28;20478;-59
2023/05/29 10:35:53;;;;;;;6.87;2.10;;;;;;;-145.18;100.00;47156.56;5044892;28;20438;-59
2023/05/29 10:38:19;;;;;;;6.33;1.33;;;;;;;-145.18;100.00;47150.72;5037837;28;20030;-59
2023/05/29 10:40:45;;;;;;;7.30;1.37;;;;;;;-145.18;100.00;47137.03;5036410;28;20083;-60
2023/05/29 10:43:35;;;;;;;11.40;2.17;;;;;;;-145.18;100.00;47137.03;5036547;28;20120;-59
2023/05/29 10:46:02;;;;;;;5.40;1.70;;;;;;;-145.18;100.00;47146.81;5040011;28;20486;-59
2023/05/29 10:48:30;;;;;;;8.03;2.33;;;;;;;-145.18;100.00;47111.66;5037544;28;20037;-59
2023/05/29 10:50:56;;;;;;;6.90;2.00;;;;;;;-145.18;100.00;47129.22;5044236;28;20419;-59
2023/05/29 10:53:31;;;;;;;6.07;2.20;;;;;;;-145.18;100.00;47137.03;5037163;28;20037;-59
2023/05/29 10:55:59;;;;;;;6.85;1.63;;;;;;;-145.18;100.00;47139.00;5038735;28;20033;-59
2023/05/29 10:58:25;;;;;;;9.03;1.33;;;;;;;-145.18;100.00;47154.63;5038261;28;20029;-59
2023/05/29 11:00:54;;;;;;;5.50;1.40;;;;;;;-145.18;100.00;47142.91;5037472;28;20112;-59
2023/05/29 11:03:25;;;;;;;4.67;1.43;;;;;;;-145.18;100.00;47140.94;5024694;28;20393;-59